sensor_id;sensor_type;location;lat;lon;timestamp;P1;durP1;ratioP1;P2;durP2;ratioP2
84923;SDS011;75286;52.218;5.180;2024-01-15T00:00:16;8.80;;;2.15;;
84923;SDS011;75286;52.218;5.180;2024-01-15T00:02:42;15.35;;;2.70;;
84923;SDS011;75286;52.218;5.180;2024-01-15T00:05:07;7.97;;;1.98;;
84923;SDS011;75286;52.218;5.180;2024-01-15T00:07:32;9.18;;;2.30;;
84923;SDS011;75286;52.218;5.180;2024-01-15T00:09:58;8.25;;;2.45;;
84923;SDS011;75286;52.218;5.180;2024-01-15T00:12:23;9.73;;;2.38;;
84923;SDS011;75286;52.218;5.180;2024-01-15T00:14:48;10.48;;;2.15;;
84923;SDS011;75286;52.218;5.180;2024-01-15T00:17:14;9.25;;;2.05;;
84923;SDS011;75286;52.218;5.180;2024-01-15T00:19:39;11.07;;;2.47;;
84923;SDS011;75286;52.218;5.180;2024-01-15T00:22:04;11.57;;;2.08;;
84923;SDS011;75286;52.218;5.180;2024-01-15T00:24:30;14.50;;;2.53;;
84923;SDS011;75286;52.218;5.180;2024-01-15T00:26:55;12.18;;;2.92;;
84923;SDS011;75286;52.218;5.180;2024-01-15T00:29:21;9.02;;;2.47;;
84923;SDS011;75286;52.218;5.180;2024-01-15T00:31:46;11.88;;;1.98;;
84923;SDS011;75286;52.218;5.180;2024-01-15T00:34:12;10.02;;;1.95;;
84923;SDS011;75286;52.218;5.180;2024-01-15T00:36:37;6.25;;;1.45;;
84923;SDS011;75286;52.218;5.180;2024-01-15T00:39:02;11.52;;;2.30;;
84923;SDS011;75286;52.218;5.180;2024-01-15T00:41:30;7.22;;;1.60;;
84923;SDS011;75286;52.218;5.180;2024-01-15T00:43:56;8.10;;;2.05;;
84923;SDS011;75286;52.218;5.180;2024-01-15T00:46:21;11.23;;;2.35;;
84923;SDS011;75286;52.218;5.180;2024-01-15T00:48:47;6.30;;;1.88;;
84923;SDS011;75286;52.218;5.180;2024-01-15T00:51:12;10.68;;;2.92;;
84923;SDS011;75286;52.218;5.180;2024-01-15T00:53:38;17.88;;;2.50;;
84923;SDS011;75286;52.218;5.180;2024-01-15T00:56:03;9.73;;;1.90;;
84923;SDS011;75286;52.218;5.180;2024-01-15T00:58:28;6.55;;;1.63;;
84923;SDS011;75286;52.218;5.180;2024-01-15T01:00:54;13.35;;;2.80;;
84923;SDS011;75286;52.218;5.180;2024-01-15T01:03:20;9.15;;;1.70;;
84923;SDS011;75286;52.218;5.180;2024-01-15T01:05:45;7.47;;;2.13;;
84923;SDS011;75286;52.218;5.180;2024-01-15T01:08:11;16.42;;;2.50;;
84923;SDS011;75286;52.218;5.180;2024-01-15T01:10:36;7.50;;;2.00;;
84923;SDS011;75286;52.218;5.180;2024-01-15T01:13:02;16.73;;;3.88;;
84923;SDS011;75286;52.218;5.180;2024-01-15T01:15:27;11.90;;;1.98;;
84923;SDS011;75286;52.218;5.180;2024-01-15T01:17:53;11.23;;;1.75;;
84923;SDS011;75286;52.218;5.180;2024-01-15T01:20:18;9.50;;;1.35;;
84923;SDS011;75286;52.218;5.180;2024-01-15T01:22:43;8.75;;;1.88;;
84923;SDS011;75286;52.218;5.180;2024-01-15T01:25:09;13.25;;;2.10;;
84923;SDS011;75286;52.218;5.180;2024-01-15T01:27:34;10.70;;;2.28;;
84923;SDS011;75286;52.218;5.180;2024-01-15T01:30:00;10.68;;;2.25;;
84923;SDS011;75286;52.218;5.180;2024-01-15T01:32:26;13.93;;;2.90;;
84923;SDS011;75286;52.218;5.180;2024-01-15T01:34:51;7.13;;;1.80;;
84923;SDS011;75286;52.218;5.180;2024-01-15T01:37:16;9.02;;;2.35;;
84923;SDS011;75286;52.218;5.180;2024-01-15T01:39:43;9.50;;;1.83;;
84923;SDS011;75286;52.218;5.180;2024-01-15T01:42:09;12.07;;;2.28;;
84923;SDS011;75286;52.218;5.180;2024-01-15T01:44:35;13.20;;;2.10;;
84923;SDS011;75286;52.218;5.180;2024-01-15T01:47:00;10.85;;;1.88;;
84923;SDS011;75286;52.218;5.180;2024-01-15T01:49:26;9.15;;;1.67;;
84923;SDS011;75286;52.218;5.180;2024-01-15T01:51:52;10.38;;;1.85;;
84923;SDS011;75286;52.218;5.180;2024-01-15T01:54:19;9.77;;;1.70;;
84923;SDS011;75286;52.218;5.180;2024-01-15T01:56:45;8.82;;;1.40;;
84923;SDS011;75286;52.218;5.180;2024-01-15T01:59:13;7.32;;;1.45;;
84923;SDS011;75286;52.218;5.180;2024-01-15T02:01:41;9.57;;;1.80;;
84923;SDS011;75286;52.218;5.180;2024-01-15T02:04:07;7.18;;;1.52;;
84923;SDS011;75286;52.218;5.180;2024-01-15T02:06:33;2.85;;;0.90;;
84923;SDS011;75286;52.218;5.180;2024-01-15T02:09:00;9.43;;;1.20;;
84923;SDS011;75286;52.218;5.180;2024-01-15T02:11:25;3.45;;;0.95;;
84923;SDS011;75286;52.218;5.180;2024-01-15T02:13:51;5.05;;;1.05;;
84923;SDS011;75286;52.218;5.180;2024-01-15T02:16:16;4.07;;;0.70;;
84923;SDS011;75286;52.218;5.180;2024-01-15T02:18:43;2.75;;;0.82;;
84923;SDS011;75286;52.218;5.180;2024-01-15T02:21:09;1.67;;;0.60;;
84923;SDS011;75286;52.218;5.180;2024-01-15T02:23:35;1.85;;;0.77;;
84923;SDS011;75286;52.218;5.180;2024-01-15T02:26:00;2.95;;;1.02;;
84923;SDS011;75286;52.218;5.180;2024-01-15T02:28:26;5.68;;;1.48;;
84923;SDS011;75286;52.218;5.180;2024-01-15T02:30:51;5.95;;;1.05;;
84923;SDS011;75286;52.218;5.180;2024-01-15T02:33:17;5.13;;;1.35;;
84923;SDS011;75286;52.218;5.180;2024-01-15T02:35:42;7.28;;;1.45;;
84923;SDS011;75286;52.218;5.180;2024-01-15T02:38:07;5.38;;;1.17;;
84923;SDS011;75286;52.218;5.180;2024-01-15T02:40:33;10.23;;;1.20;;
84923;SDS011;75286;52.218;5.180;2024-01-15T02:43:00;4.88;;;1.13;;
84923;SDS011;75286;52.218;5.180;2024-01-15T02:45:25;11.63;;;1.90;;
84923;SDS011;75286;52.218;5.180;2024-01-15T02:47:51;4.95;;;1.17;;
84923;SDS011;75286;52.218;5.180;2024-01-15T02:50:16;5.47;;;0.93;;
84923;SDS011;75286;52.218;5.180;2024-01-15T02:52:41;9.45;;;1.20;;
84923;SDS011;75286;52.218;5.180;2024-01-15T02:55:07;7.30;;;1.20;;
84923;SDS011;75286;52.218;5.180;2024-01-15T02:57:33;4.93;;;0.95;;
84923;SDS011;75286;52.218;5.180;2024-01-15T02:59:58;6.30;;;1.20;;
84923;SDS011;75286;52.218;5.180;2024-01-15T03:02:24;4.50;;;1.05;;
84923;SDS011;75286;52.218;5.180;2024-01-15T03:04:49;9.65;;;1.15;;
84923;SDS011;75286;52.218;5.180;2024-01-15T03:07:14;4.50;;;1.00;;
84923;SDS011;75286;52.218;5.180;2024-01-15T03:09:40;5.63;;;1.00;;
84923;SDS011;75286;52.218;5.180;2024-01-15T03:12:05;4.20;;;1.88;;
84923;SDS011;75286;52.218;5.180;2024-01-15T03:14:31;4.88;;;1.08;;
84923;SDS011;75286;52.218;5.180;2024-01-15T03:16:56;5.35;;;1.13;;
84923;SDS011;75286;52.218;5.180;2024-01-15T03:19:22;7.28;;;1.50;;
84923;SDS011;75286;52.218;5.180;2024-01-15T03:21:47;9.32;;;1.73;;
84923;SDS011;75286;52.218;5.180;2024-01-15T03:24:13;5.65;;;1.10;;
84923;SDS011;75286;52.218;5.180;2024-01-15T03:26:38;6.43;;;0.90;;
84923;SDS011;75286;52.218;5.180;2024-01-15T03:29:03;7.95;;;1.92;;
84923;SDS011;75286;52.218;5.180;2024-01-15T03:31:29;10.25;;;1.80;;
84923;SDS011;75286;52.218;5.180;2024-01-15T03:33:54;9.25;;;1.20;;
84923;SDS011;75286;52.218;5.180;2024-01-15T03:36:20;9.27;;;1.20;;
84923;SDS011;75286;52.218;5.180;2024-01-15T03:38:45;6.63;;;1.30;;
84923;SDS011;75286;52.218;5.180;2024-01-15T03:41:10;7.30;;;1.17;;
84923;SDS011;75286;52.218;5.180;2024-01-15T03:43:36;5.70;;;1.13;;
84923;SDS011;75286;52.218;5.180;2024-01-15T03:46:01;5.57;;;1.25;;
84923;SDS011;75286;52.218;5.180;2024-01-15T03:48:27;5.70;;;1.10;;
84923;SDS011;75286;52.218;5.180;2024-01-15T03:50:52;5.22;;;1.60;;
84923;SDS011;75286;52.218;5.180;2024-01-15T03:53:18;8.95;;;1.65;;
84923;SDS011;75286;52.218;5.180;2024-01-15T03:55:43;6.40;;;1.67;;
84923;SDS011;75286;52.218;5.180;2024-01-15T03:58:09;5.13;;;1.00;;
84923;SDS011;75286;52.218;5.180;2024-01-15T04:00:34;9.75;;;1.48;;
84923;SDS011;75286;52.218;5.180;2024-01-15T04:02:59;8.63;;;1.40;;
84923;SDS011;75286;52.218;5.180;2024-01-15T04:05:25;8.45;;;1.35;;
84923;SDS011;75286;52.218;5.180;2024-01-15T04:07:50;8.82;;;1.50;;
84923;SDS011;75286;52.218;5.180;2024-01-15T04:10:16;10.20;;;1.83;;
84923;SDS011;75286;52.218;5.180;2024-01-15T04:12:41;6.32;;;1.20;;
84923;SDS011;75286;52.218;5.180;2024-01-15T04:15:06;6.00;;;1.15;;
84923;SDS011;75286;52.218;5.180;2024-01-15T04:17:32;9.07;;;2.25;;
84923;SDS011;75286;52.218;5.180;2024-01-15T04:19:57;7.75;;;1.05;;
84923;SDS011;75286;52.218;5.180;2024-01-15T04:22:23;5.15;;;1.00;;
84923;SDS011;75286;52.218;5.180;2024-01-15T04:24:48;12.65;;;2.25;;
84923;SDS011;75286;52.218;5.180;2024-01-15T04:27:13;8.43;;;1.55;;
84923;SDS011;75286;52.218;5.180;2024-01-15T04:29:39;6.25;;;1.65;;
84923;SDS011;75286;52.218;5.180;2024-01-15T04:32:04;8.40;;;1.23;;
84923;SDS011;75286;52.218;5.180;2024-01-15T04:34:30;6.40;;;1.20;;
84923;SDS011;75286;52.218;5.180;2024-01-15T04:36:55;5.40;;;1.20;;
84923;SDS011;75286;52.218;5.180;2024-01-15T04:39:21;5.88;;;1.10;;
84923;SDS011;75286;52.218;5.180;2024-01-15T04:41:47;5.05;;;0.73;;
84923;SDS011;75286;52.218;5.180;2024-01-15T04:44:12;7.65;;;1.25;;
84923;SDS011;75286;52.218;5.180;2024-01-15T04:46:37;8.30;;;1.10;;
84923;SDS011;75286;52.218;5.180;2024-01-15T04:49:03;3.05;;;0.88;;
84923;SDS011;75286;52.218;5.180;2024-01-15T04:51:28;4.90;;;1.90;;
84923;SDS011;75286;52.218;5.180;2024-01-15T04:53:54;3.33;;;0.77;;
84923;SDS011;75286;52.218;5.180;2024-01-15T04:56:19;6.80;;;1.95;;
84923;SDS011;75286;52.218;5.180;2024-01-15T04:58:44;5.68;;;1.58;;
84923;SDS011;75286;52.218;5.180;2024-01-15T05:01:10;6.40;;;0.85;;
84923;SDS011;75286;52.218;5.180;2024-01-15T05:03:36;5.93;;;1.27;;
84923;SDS011;75286;52.218;5.180;2024-01-15T05:06:01;5.90;;;1.77;;
84923;SDS011;75286;52.218;5.180;2024-01-15T05:08:26;3.75;;;1.05;;
84923;SDS011;75286;52.218;5.180;2024-01-15T05:10:52;6.85;;;1.30;;
84923;SDS011;75286;52.218;5.180;2024-01-15T05:13:17;8.38;;;1.60;;
84923;SDS011;75286;52.218;5.180;2024-01-15T05:15:42;6.00;;;0.95;;
84923;SDS011;75286;52.218;5.180;2024-01-15T05:18:08;7.68;;;1.05;;
84923;SDS011;75286;52.218;5.180;2024-01-15T05:20:33;5.35;;;1.00;;
84923;SDS011;75286;52.218;5.180;2024-01-15T05:22:59;4.20;;;1.13;;
84923;SDS011;75286;52.218;5.180;2024-01-15T05:25:24;4.40;;;1.13;;
84923;SDS011;75286;52.218;5.180;2024-01-15T05:27:50;6.57;;;1.50;;
84923;SDS011;75286;52.218;5.180;2024-01-15T05:30:15;4.20;;;3.05;;
84923;SDS011;75286;52.218;5.180;2024-01-15T05:32:41;5.18;;;0.90;;
84923;SDS011;75286;52.218;5.180;2024-01-15T05:35:07;8.63;;;1.60;;
84923;SDS011;75286;52.218;5.180;2024-01-15T05:37:32;6.00;;;1.55;;
84923;SDS011;75286;52.218;5.180;2024-01-15T05:39:57;6.10;;;1.13;;
84923;SDS011;75286;52.218;5.180;2024-01-15T05:42:23;6.22;;;1.38;;
84923;SDS011;75286;52.218;5.180;2024-01-15T05:44:49;8.00;;;1.17;;
84923;SDS011;75286;52.218;5.180;2024-01-15T05:47:14;6.50;;;1.33;;
84923;SDS011;75286;52.218;5.180;2024-01-15T05:49:40;4.38;;;1.10;;
84923;SDS011;75286;52.218;5.180;2024-01-15T05:52:05;7.22;;;1.25;;
84923;SDS011;75286;52.218;5.180;2024-01-15T05:54:31;5.60;;;1.27;;
84923;SDS011;75286;52.218;5.180;2024-01-15T05:56:56;4.85;;;1.10;;
84923;SDS011;75286;52.218;5.180;2024-01-15T05:59:22;5.90;;;1.38;;
84923;SDS011;75286;52.218;5.180;2024-01-15T06:01:47;6.28;;;1.20;;
84923;SDS011;75286;52.218;5.180;2024-01-15T06:04:13;4.60;;;1.30;;
84923;SDS011;75286;52.218;5.180;2024-01-15T06:06:38;6.50;;;1.52;;
84923;SDS011;75286;52.218;5.180;2024-01-15T06:09:03;6.85;;;1.42;;
84923;SDS011;75286;52.218;5.180;2024-01-15T06:11:32;6.10;;;1.33;;
84923;SDS011;75286;52.218;5.180;2024-01-15T06:13:57;8.02;;;1.67;;
84923;SDS011;75286;52.218;5.180;2024-01-15T06:16:23;3.20;;;1.35;;
84923;SDS011;75286;52.218;5.180;2024-01-15T06:18:49;10.95;;;1.83;;
84923;SDS011;75286;52.218;5.180;2024-01-15T06:21:15;8.35;;;1.80;;
84923;SDS011;75286;52.218;5.180;2024-01-15T06:23:41;6.10;;;1.80;;
84923;SDS011;75286;52.218;5.180;2024-01-15T06:26:06;10.98;;;2.25;;
84923;SDS011;75286;52.218;5.180;2024-01-15T06:28:31;6.88;;;1.95;;
84923;SDS011;75286;52.218;5.180;2024-01-15T06:30:57;7.18;;;1.98;;
84923;SDS011;75286;52.218;5.180;2024-01-15T06:33:23;8.57;;;2.13;;
84923;SDS011;75286;52.218;5.180;2024-01-15T06:35:48;8.93;;;1.95;;
84923;SDS011;75286;52.218;5.180;2024-01-15T06:38:14;4.28;;;1.70;;
84923;SDS011;75286;52.218;5.180;2024-01-15T06:40:40;9.93;;;1.83;;
84923;SDS011;75286;52.218;5.180;2024-01-15T06:43:10;5.82;;;1.40;;
84923;SDS011;75286;52.218;5.180;2024-01-15T06:45:36;6.97;;;1.90;;
84923;SDS011;75286;52.218;5.180;2024-01-15T06:48:01;2.92;;;1.02;;
84923;SDS011;75286;52.218;5.180;2024-01-15T06:50:27;8.90;;;2.10;;
84923;SDS011;75286;52.218;5.180;2024-01-15T06:52:52;7.05;;;1.63;;
84923;SDS011;75286;52.218;5.180;2024-01-15T06:55:18;6.88;;;1.83;;
84923;SDS011;75286;52.218;5.180;2024-01-15T06:57:43;7.18;;;2.00;;
84923;SDS011;75286;52.218;5.180;2024-01-15T07:00:08;8.98;;;1.75;;
84923;SDS011;75286;52.218;5.180;2024-01-15T07:02:35;15.70;;;2.60;;
84923;SDS011;75286;52.218;5.180;2024-01-15T07:05:00;9.20;;;2.17;;
84923;SDS011;75286;52.218;5.180;2024-01-15T07:07:26;7.30;;;2.47;;
84923;SDS011;75286;52.218;5.180;2024-01-15T07:09:54;8.38;;;2.88;;
84923;SDS011;75286;52.218;5.180;2024-01-15T07:12:19;6.22;;;2.58;;
84923;SDS011;75286;52.218;5.180;2024-01-15T07:14:44;7.35;;;1.92;;
84923;SDS011;75286;52.218;5.180;2024-01-15T07:17:10;6.50;;;1.67;;
84923;SDS011;75286;52.218;5.180;2024-01-15T07:19:35;8.60;;;2.08;;
84923;SDS011;75286;52.218;5.180;2024-01-15T07:22:01;7.80;;;1.88;;
84923;SDS011;75286;52.218;5.180;2024-01-15T07:24:27;5.80;;;1.58;;
84923;SDS011;75286;52.218;5.180;2024-01-15T07:26:52;7.65;;;2.42;;
84923;SDS011;75286;52.218;5.180;2024-01-15T07:29:18;6.28;;;1.83;;
84923;SDS011;75286;52.218;5.180;2024-01-15T07:31:49;7.15;;;1.70;;
84923;SDS011;75286;52.218;5.180;2024-01-15T07:34:15;4.40;;;1.50;;
84923;SDS011;75286;52.218;5.180;2024-01-15T07:36:42;6.90;;;2.42;;
84923;SDS011;75286;52.218;5.180;2024-01-15T07:39:07;9.50;;;2.13;;
84923;SDS011;75286;52.218;5.180;2024-01-15T07:41:32;6.65;;;2.13;;
84923;SDS011;75286;52.218;5.180;2024-01-15T07:43:58;7.00;;;1.90;;
84923;SDS011;75286;52.218;5.180;2024-01-15T07:46:23;6.93;;;1.92;;
84923;SDS011;75286;52.218;5.180;2024-01-15T07:48:49;6.82;;;1.80;;
84923;SDS011;75286;52.218;5.180;2024-01-15T07:51:21;7.70;;;2.00;;
84923;SDS011;75286;52.218;5.180;2024-01-15T07:53:46;13.07;;;2.20;;
84923;SDS011;75286;52.218;5.180;2024-01-15T07:56:12;7.10;;;2.10;;
84923;SDS011;75286;52.218;5.180;2024-01-15T07:58:37;5.63;;;1.67;;
84923;SDS011;75286;52.218;5.180;2024-01-15T08:01:03;10.10;;;2.10;;
84923;SDS011;75286;52.218;5.180;2024-01-15T08:03:28;6.55;;;1.70;;
84923;SDS011;75286;52.218;5.180;2024-01-15T08:05:53;6.80;;;1.95;;
84923;SDS011;75286;52.218;5.180;2024-01-15T08:08:20;7.93;;;2.50;;
84923;SDS011;75286;52.218;5.180;2024-01-15T08:10:46;11.85;;;3.38;;
84923;SDS011;75286;52.218;5.180;2024-01-15T08:13:12;9.73;;;2.65;;
84923;SDS011;75286;52.218;5.180;2024-01-15T08:15:37;6.93;;;1.85;;
84923;SDS011;75286;52.218;5.180;2024-01-15T08:18:02;9.52;;;2.10;;
84923;SDS011;75286;52.218;5.180;2024-01-15T08:20:28;8.52;;;1.77;;
84923;SDS011;75286;52.218;5.180;2024-01-15T08:22:53;7.10;;;1.80;;
84923;SDS011;75286;52.218;5.180;2024-01-15T08:25:19;7.35;;;2.05;;
84923;SDS011;75286;52.218;5.180;2024-01-15T08:27:44;6.05;;;2.95;;
84923;SDS011;75286;52.218;5.180;2024-01-15T08:30:10;9.20;;;1.90;;
84923;SDS011;75286;52.218;5.180;2024-01-15T08:32:36;7.40;;;1.52;;
84923;SDS011;75286;52.218;5.180;2024-01-15T08:35:05;3.50;;;1.15;;
84923;SDS011;75286;52.218;5.180;2024-01-15T08:37:31;6.10;;;1.63;;
84923;SDS011;75286;52.218;5.180;2024-01-15T08:39:56;7.60;;;1.63;;
84923;SDS011;75286;52.218;5.180;2024-01-15T08:42:22;7.43;;;1.92;;
84923;SDS011;75286;52.218;5.180;2024-01-15T08:44:47;6.85;;;1.67;;
84923;SDS011;75286;52.218;5.180;2024-01-15T08:47:12;4.82;;;1.50;;
84923;SDS011;75286;52.218;5.180;2024-01-15T08:49:38;4.97;;;1.30;;
84923;SDS011;75286;52.218;5.180;2024-01-15T08:52:04;8.30;;;1.70;;
84923;SDS011;75286;52.218;5.180;2024-01-15T08:54:30;6.82;;;1.52;;
84923;SDS011;75286;52.218;5.180;2024-01-15T08:56:55;8.65;;;2.65;;
84923;SDS011;75286;52.218;5.180;2024-01-15T08:59:20;6.22;;;1.60;;
84923;SDS011;75286;52.218;5.180;2024-01-15T09:01:50;5.97;;;2.03;;
84923;SDS011;75286;52.218;5.180;2024-01-15T09:04:15;6.50;;;1.88;;
84923;SDS011;75286;52.218;5.180;2024-01-15T09:06:42;6.63;;;1.80;;
84923;SDS011;75286;52.218;5.180;2024-01-15T09:09:10;4.95;;;1.73;;
84923;SDS011;75286;52.218;5.180;2024-01-15T09:11:36;7.78;;;1.50;;
84923;SDS011;75286;52.218;5.180;2024-01-15T09:14:01;7.60;;;1.45;;
84923;SDS011;75286;52.218;5.180;2024-01-15T09:16:27;5.90;;;1.38;;
84923;SDS011;75286;52.218;5.180;2024-01-15T09:18:52;6.97;;;1.70;;
84923;SDS011;75286;52.218;5.180;2024-01-15T09:21:17;9.07;;;2.00;;
84923;SDS011;75286;52.218;5.180;2024-01-15T09:23:43;5.93;;;1.58;;
84923;SDS011;75286;52.218;5.180;2024-01-15T09:26:08;7.45;;;1.55;;
84923;SDS011;75286;52.218;5.180;2024-01-15T09:28:34;9.77;;;1.77;;
84923;SDS011;75286;52.218;5.180;2024-01-15T09:30:59;5.38;;;1.83;;
84923;SDS011;75286;52.218;5.180;2024-01-15T09:33:25;7.65;;;1.48;;
84923;SDS011;75286;52.218;5.180;2024-01-15T09:35:50;6.22;;;1.30;;
84923;SDS011;75286;52.218;5.180;2024-01-15T09:38:15;8.82;;;1.65;;
84923;SDS011;75286;52.218;5.180;2024-01-15T09:40:42;6.57;;;1.50;;
84923;SDS011;75286;52.218;5.180;2024-01-15T09:43:10;5.43;;;1.27;;
84923;SDS011;75286;52.218;5.180;2024-01-15T09:45:36;5.75;;;1.20;;
84923;SDS011;75286;52.218;5.180;2024-01-15T09:48:02;7.75;;;1.58;;
84923;SDS011;75286;52.218;5.180;2024-01-15T09:50:27;6.45;;;1.60;;
84923;SDS011;75286;52.218;5.180;2024-01-15T09:52:53;6.43;;;1.65;;
84923;SDS011;75286;52.218;5.180;2024-01-15T09:55:19;6.85;;;1.60;;
84923;SDS011;75286;52.218;5.180;2024-01-15T09:57:45;13.15;;;2.53;;
84923;SDS011;75286;52.218;5.180;2024-01-15T10:00:11;11.75;;;2.00;;
84923;SDS011;75286;52.218;5.180;2024-01-15T10:02:37;9.20;;;2.22;;
84923;SDS011;75286;52.218;5.180;2024-01-15T10:05:02;10.00;;;1.98;;
84923;SDS011;75286;52.218;5.180;2024-01-15T10:07:28;9.38;;;2.05;;
84923;SDS011;75286;52.218;5.180;2024-01-15T10:09:54;10.75;;;2.05;;
84923;SDS011;75286;52.218;5.180;2024-01-15T10:12:21;7.85;;;1.63;;
84923;SDS011;75286;52.218;5.180;2024-01-15T10:14:48;11.88;;;1.83;;
84923;SDS011;75286;52.218;5.180;2024-01-15T10:17:14;8.73;;;1.75;;
84923;SDS011;75286;52.218;5.180;2024-01-15T10:19:40;11.70;;;1.98;;
84923;SDS011;75286;52.218;5.180;2024-01-15T10:22:07;7.63;;;1.73;;
84923;SDS011;75286;52.218;5.180;2024-01-15T10:24:34;10.10;;;1.90;;
84923;SDS011;75286;52.218;5.180;2024-01-15T10:27:05;9.23;;;1.73;;
84923;SDS011;75286;52.218;5.180;2024-01-15T10:29:32;9.10;;;2.10;;
84923;SDS011;75286;52.218;5.180;2024-01-15T10:31:57;11.55;;;3.53;;
84923;SDS011;75286;52.218;5.180;2024-01-15T10:34:24;8.82;;;2.47;;
84923;SDS011;75286;52.218;5.180;2024-01-15T10:36:50;9.93;;;2.60;;
84923;SDS011;75286;52.218;5.180;2024-01-15T10:39:20;11.02;;;4.03;;
84923;SDS011;75286;52.218;5.180;2024-01-15T10:41:46;10.02;;;2.50;;
84923;SDS011;75286;52.218;5.180;2024-01-15T10:44:12;10.82;;;2.53;;
84923;SDS011;75286;52.218;5.180;2024-01-15T10:46:37;9.07;;;2.20;;
84923;SDS011;75286;52.218;5.180;2024-01-15T10:49:04;10.93;;;2.50;;
84923;SDS011;75286;52.218;5.180;2024-01-15T10:51:29;8.25;;;2.10;;
84923;SDS011;75286;52.218;5.180;2024-01-15T10:53:56;11.60;;;1.80;;
84923;SDS011;75286;52.218;5.180;2024-01-15T10:56:22;7.28;;;1.38;;
84923;SDS011;75286;52.218;5.180;2024-01-15T10:58:49;7.90;;;1.10;;
84923;SDS011;75286;52.218;5.180;2024-01-15T11:01:15;3.15;;;0.80;;
84923;SDS011;75286;52.218;5.180;2024-01-15T11:03:42;2.35;;;1.02;;
84923;SDS011;75286;52.218;5.180;2024-01-15T11:06:15;1.23;;;0.80;;
84923;SDS011;75286;52.218;5.180;2024-01-15T11:08:42;3.92;;;0.88;;
84923;SDS011;75286;52.218;5.180;2024-01-15T11:11:08;3.83;;;0.80;;
84923;SDS011;75286;52.218;5.180;2024-01-15T11:16:04;2.55;;;0.80;;
84923;SDS011;75286;52.218;5.180;2024-01-15T11:18:37;3.58;;;0.65;;
84923;SDS011;75286;52.218;5.180;2024-01-15T11:23:42;2.55;;;0.88;;
84923;SDS011;75286;52.218;5.180;2024-01-15T11:26:34;3.72;;;0.90;;
84923;SDS011;75286;52.218;5.180;2024-01-15T11:34:19;2.70;;;0.88;;
84923;SDS011;75286;52.218;5.180;2024-01-15T11:41:51;3.33;;;0.85;;
84923;SDS011;75286;52.218;5.180;2024-01-15T11:44:19;4.72;;;1.05;;
84923;SDS011;75286;52.218;5.180;2024-01-15T11:46:46;4.68;;;1.02;;
84923;SDS011;75286;52.218;5.180;2024-01-15T11:52:00;6.13;;;1.60;;
84923;SDS011;75286;52.218;5.180;2024-01-15T11:54:27;5.18;;;1.52;;
84923;SDS011;75286;52.218;5.180;2024-01-15T11:56:58;4.85;;;1.10;;
84923;SDS011;75286;52.218;5.180;2024-01-15T11:59:28;6.13;;;1.50;;
84923;SDS011;75286;52.218;5.180;2024-01-15T12:01:54;6.07;;;1.27;;
84923;SDS011;75286;52.218;5.180;2024-01-15T12:04:22;5.18;;;1.30;;
84923;SDS011;75286;52.218;5.180;2024-01-15T12:06:47;5.05;;;1.67;;
84923;SDS011;75286;52.218;5.180;2024-01-15T12:09:12;7.85;;;1.77;;
84923;SDS011;75286;52.218;5.180;2024-01-15T12:11:38;6.60;;;1.65;;
84923;SDS011;75286;52.218;5.180;2024-01-15T12:14:11;5.00;;;1.02;;
84923;SDS011;75286;52.218;5.180;2024-01-15T12:16:37;5.40;;;1.15;;
84923;SDS011;75286;52.218;5.180;2024-01-15T12:19:02;5.85;;;1.38;;
84923;SDS011;75286;52.218;5.180;2024-01-15T12:21:28;3.08;;;1.10;;
84923;SDS011;75286;52.218;5.180;2024-01-15T12:23:55;7.85;;;1.40;;
84923;SDS011;75286;52.218;5.180;2024-01-15T12:26:21;10.27;;;1.67;;
84923;SDS011;75286;52.218;5.180;2024-01-15T12:28:46;5.28;;;1.10;;
84923;SDS011;75286;52.218;5.180;2024-01-15T12:31:11;6.72;;;1.10;;
84923;SDS011;75286;52.218;5.180;2024-01-15T12:33:38;7.35;;;1.88;;
84923;SDS011;75286;52.218;5.180;2024-01-15T12:36:04;5.82;;;1.42;;
84923;SDS011;75286;52.218;5.180;2024-01-15T12:38:29;5.97;;;1.17;;
84923;SDS011;75286;52.218;5.180;2024-01-15T12:40:55;4.43;;;1.30;;
84923;SDS011;75286;52.218;5.180;2024-01-15T12:43:20;5.53;;;1.40;;
84923;SDS011;75286;52.218;5.180;2024-01-15T12:45:45;8.25;;;1.50;;
84923;SDS011;75286;52.218;5.180;2024-01-15T12:48:11;6.53;;;2.10;;
84923;SDS011;75286;52.218;5.180;2024-01-15T12:50:38;5.93;;;1.67;;
84923;SDS011;75286;52.218;5.180;2024-01-15T12:53:03;5.97;;;1.50;;
84923;SDS011;75286;52.218;5.180;2024-01-15T12:55:29;6.55;;;2.22;;
84923;SDS011;75286;52.218;5.180;2024-01-15T12:57:54;9.60;;;1.90;;
84923;SDS011;75286;52.218;5.180;2024-01-15T13:00:20;5.38;;;1.25;;
84923;SDS011;75286;52.218;5.180;2024-01-15T13:02:45;4.68;;;1.10;;
84923;SDS011;75286;52.218;5.180;2024-01-15T13:05:11;7.95;;;1.30;;
84923;SDS011;75286;52.218;5.180;2024-01-15T13:07:37;6.60;;;1.65;;
84923;SDS011;75286;52.218;5.180;2024-01-15T13:10:03;6.82;;;1.27;;
84923;SDS011;75286;52.218;5.180;2024-01-15T13:12:29;7.25;;;1.35;;
84923;SDS011;75286;52.218;5.180;2024-01-15T13:14:55;8.02;;;1.35;;
84923;SDS011;75286;52.218;5.180;2024-01-15T13:17:21;6.10;;;1.38;;
84923;SDS011;75286;52.218;5.180;2024-01-15T13:19:47;7.47;;;1.75;;
84923;SDS011;75286;52.218;5.180;2024-01-15T13:22:12;6.32;;;1.73;;
84923;SDS011;75286;52.218;5.180;2024-01-15T13:24:39;9.50;;;2.00;;
84923;SDS011;75286;52.218;5.180;2024-01-15T13:27:04;14.00;;;2.15;;
84923;SDS011;75286;52.218;5.180;2024-01-15T13:29:30;6.55;;;1.60;;
84923;SDS011;75286;52.218;5.180;2024-01-15T13:31:56;9.63;;;2.70;;
84923;SDS011;75286;52.218;5.180;2024-01-15T13:34:22;7.50;;;2.05;;
84923;SDS011;75286;52.218;5.180;2024-01-15T13:36:50;14.30;;;2.50;;
84923;SDS011;75286;52.218;5.180;2024-01-15T13:39:16;8.10;;;1.58;;
84923;SDS011;75286;52.218;5.180;2024-01-15T13:41:45;12.60;;;2.22;;
84923;SDS011;75286;52.218;5.180;2024-01-15T13:44:11;5.45;;;1.80;;
84923;SDS011;75286;52.218;5.180;2024-01-15T13:46:37;8.73;;;1.33;;
84923;SDS011;75286;52.218;5.180;2024-01-15T13:49:03;7.50;;;1.20;;
84923;SDS011;75286;52.218;5.180;2024-01-15T13:51:31;7.40;;;1.20;;
84923;SDS011;75286;52.218;5.180;2024-01-15T13:53:56;5.20;;;1.70;;
84923;SDS011;75286;52.218;5.180;2024-01-15T13:56:22;5.45;;;1.85;;
84923;SDS011;75286;52.218;5.180;2024-01-15T13:58:47;10.50;;;1.60;;
84923;SDS011;75286;52.218;5.180;2024-01-15T14:01:13;9.88;;;2.00;;
84923;SDS011;75286;52.218;5.180;2024-01-15T14:03:38;7.30;;;1.60;;
84923;SDS011;75286;52.218;5.180;2024-01-15T14:06:04;8.60;;;1.65;;
84923;SDS011;75286;52.218;5.180;2024-01-15T14:08:33;7.93;;;1.80;;
84923;SDS011;75286;52.218;5.180;2024-01-15T14:10:59;10.18;;;2.33;;
84923;SDS011;75286;52.218;5.180;2024-01-15T14:13:25;8.80;;;1.85;;
84923;SDS011;75286;52.218;5.180;2024-01-15T14:15:50;11.43;;;2.38;;
84923;SDS011;75286;52.218;5.180;2024-01-15T14:18:16;10.52;;;2.50;;
84923;SDS011;75286;52.218;5.180;2024-01-15T14:20:42;9.15;;;2.00;;
84923;SDS011;75286;52.218;5.180;2024-01-15T14:23:08;9.02;;;1.75;;
84923;SDS011;75286;52.218;5.180;2024-01-15T14:25:33;9.75;;;2.25;;
84923;SDS011;75286;52.218;5.180;2024-01-15T14:27:59;12.27;;;2.60;;
84923;SDS011;75286;52.218;5.180;2024-01-15T14:30:25;10.82;;;2.83;;
84923;SDS011;75286;52.218;5.180;2024-01-15T14:32:50;8.63;;;2.58;;
84923;SDS011;75286;52.218;5.180;2024-01-15T14:35:15;12.05;;;3.03;;
84923;SDS011;75286;52.218;5.180;2024-01-15T14:37:41;13.15;;;3.55;;
84923;SDS011;75286;52.218;5.180;2024-01-15T14:40:06;11.52;;;3.00;;
84923;SDS011;75286;52.218;5.180;2024-01-15T14:42:40;14.25;;;3.33;;
84923;SDS011;75286;52.218;5.180;2024-01-15T14:45:06;15.45;;;3.58;;
84923;SDS011;75286;52.218;5.180;2024-01-15T14:47:39;11.25;;;2.80;;
84923;SDS011;75286;52.218;5.180;2024-01-15T14:50:08;12.93;;;2.30;;
84923;SDS011;75286;52.218;5.180;2024-01-15T14:52:35;17.30;;;3.22;;
84923;SDS011;75286;52.218;5.180;2024-01-15T14:55:01;10.95;;;2.45;;